sensor_id;sensor_type;location;lat;lon;timestamp;P1;durP1;ratioP1;P2;durP2;ratioP2
32535;SDS011;18974;50.838;4.636;2024-02-15T00:00:40;12.13;;;5.22;;
32535;SDS011;18974;50.838;4.636;2024-02-15T00:03:08;19.08;;;5.60;;
32535;SDS011;18974;50.838;4.636;2024-02-15T00:05:37;29.70;;;5.88;;
32535;SDS011;18974;50.838;4.636;2024-02-15T00:08:03;20.77;;;4.75;;
32535;SDS011;18974;50.838;4.636;2024-02-15T00:10:29;14.57;;;5.32;;
32535;SDS011;18974;50.838;4.636;2024-02-15T00:12:55;20.75;;;5.00;;
32535;SDS011;18974;50.838;4.636;2024-02-15T00:15:20;18.25;;;5.75;;
32535;SDS011;18974;50.838;4.636;2024-02-15T00:17:46;17.40;;;5.22;;
32535;SDS011;18974;50.838;4.636;2024-02-15T00:20:12;19.70;;;4.93;;
32535;SDS011;18974;50.838;4.636;2024-02-15T00:22:38;18.92;;;5.18;;
32535;SDS011;18974;50.838;4.636;2024-02-15T00:25:07;16.30;;;5.03;;
32535;SDS011;18974;50.838;4.636;2024-02-15T00:27:34;20.27;;;5.97;;
32535;SDS011;18974;50.838;4.636;2024-02-15T00:30:00;14.75;;;5.20;;
32535;SDS011;18974;50.838;4.636;2024-02-15T00:32:27;17.13;;;4.93;;
32535;SDS011;18974;50.838;4.636;2024-02-15T00:34:52;12.60;;;4.78;;
32535;SDS011;18974;50.838;4.636;2024-02-15T00:37:18;18.00;;;5.25;;
32535;SDS011;18974;50.838;4.636;2024-02-15T00:39:44;16.48;;;5.00;;
32535;SDS011;18974;50.838;4.636;2024-02-15T00:42:10;19.92;;;5.68;;
32535;SDS011;18974;50.838;4.636;2024-02-15T00:44:36;15.68;;;4.85;;
32535;SDS011;18974;50.838;4.636;2024-02-15T00:47:02;20.48;;;5.10;;
32535;SDS011;18974;50.838;4.636;2024-02-15T00:49:28;17.35;;;4.90;;
32535;SDS011;18974;50.838;4.636;2024-02-15T00:51:53;16.95;;;4.63;;
32535;SDS011;18974;50.838;4.636;2024-02-15T00:54:19;14.27;;;4.25;;
32535;SDS011;18974;50.838;4.636;2024-02-15T00:56:45;18.58;;;5.25;;
32535;SDS011;18974;50.838;4.636;2024-02-15T00:59:10;21.25;;;4.90;;
32535;SDS011;18974;50.838;4.636;2024-02-15T01:01:36;19.80;;;4.93;;
32535;SDS011;18974;50.838;4.636;2024-02-15T01:04:03;17.45;;;4.70;;
32535;SDS011;18974;50.838;4.636;2024-02-15T01:06:29;20.77;;;5.55;;
32535;SDS011;18974;50.838;4.636;2024-02-15T01:08:55;33.30;;;5.15;;
32535;SDS011;18974;50.838;4.636;2024-02-15T01:11:22;21.52;;;5.45;;
32535;SDS011;18974;50.838;4.636;2024-02-15T01:13:49;16.52;;;4.47;;
32535;SDS011;18974;50.838;4.636;2024-02-15T01:16:16;17.88;;;4.60;;
32535;SDS011;18974;50.838;4.636;2024-02-15T01:18:41;18.63;;;4.95;;
32535;SDS011;18974;50.838;4.636;2024-02-15T01:21:07;19.40;;;4.85;;
32535;SDS011;18974;50.838;4.636;2024-02-15T01:23:33;16.27;;;4.32;;
32535;SDS011;18974;50.838;4.636;2024-02-15T01:26:01;17.23;;;4.32;;
32535;SDS011;18974;50.838;4.636;2024-02-15T01:28:27;17.83;;;5.15;;
32535;SDS011;18974;50.838;4.636;2024-02-15T01:30:53;20.40;;;4.75;;
32535;SDS011;18974;50.838;4.636;2024-02-15T01:33:19;18.13;;;4.70;;
32535;SDS011;18974;50.838;4.636;2024-02-15T01:35:45;14.13;;;3.90;;
32535;SDS011;18974;50.838;4.636;2024-02-15T01:38:11;18.55;;;4.47;;
32535;SDS011;18974;50.838;4.636;2024-02-15T01:40:36;16.58;;;4.30;;
32535;SDS011;18974;50.838;4.636;2024-02-15T01:43:03;22.77;;;5.05;;
32535;SDS011;18974;50.838;4.636;2024-02-15T01:45:29;18.67;;;4.95;;
32535;SDS011;18974;50.838;4.636;2024-02-15T01:47:54;19.08;;;4.95;;
32535;SDS011;18974;50.838;4.636;2024-02-15T01:50:21;18.23;;;4.95;;
32535;SDS011;18974;50.838;4.636;2024-02-15T01:52:48;15.73;;;4.43;;
32535;SDS011;18974;50.838;4.636;2024-02-15T01:55:17;17.58;;;5.07;;
32535;SDS011;18974;50.838;4.636;2024-02-15T01:57:46;19.15;;;4.57;;
32535;SDS011;18974;50.838;4.636;2024-02-15T02:00:13;20.90;;;5.30;;
32535;SDS011;18974;50.838;4.636;2024-02-15T02:02:43;22.50;;;5.90;;
32535;SDS011;18974;50.838;4.636;2024-02-15T02:05:10;17.92;;;5.38;;
32535;SDS011;18974;50.838;4.636;2024-02-15T02:07:36;20.05;;;4.82;;
32535;SDS011;18974;50.838;4.636;2024-02-15T02:10:03;15.60;;;4.43;;
32535;SDS011;18974;50.838;4.636;2024-02-15T02:12:29;14.60;;;5.32;;
32535;SDS011;18974;50.838;4.636;2024-02-15T02:14:56;14.30;;;4.80;;
32535;SDS011;18974;50.838;4.636;2024-02-15T02:17:21;11.35;;;3.90;;
32535;SDS011;18974;50.838;4.636;2024-02-15T02:19:47;16.42;;;4.82;;
32535;SDS011;18974;50.838;4.636;2024-02-15T02:22:15;18.65;;;4.40;;
32535;SDS011;18974;50.838;4.636;2024-02-15T02:24:59;18.52;;;4.43;;
32535;SDS011;18974;50.838;4.636;2024-02-15T02:27:33;12.98;;;3.60;;
32535;SDS011;18974;50.838;4.636;2024-02-15T02:29:59;14.48;;;3.90;;
32535;SDS011;18974;50.838;4.636;2024-02-15T02:32:28;16.63;;;3.92;;
32535;SDS011;18974;50.838;4.636;2024-02-15T02:34:54;12.80;;;3.50;;
32535;SDS011;18974;50.838;4.636;2024-02-15T02:37:25;11.73;;;3.42;;
32535;SDS011;18974;50.838;4.636;2024-02-15T02:39:51;18.05;;;3.90;;
32535;SDS011;18974;50.838;4.636;2024-02-15T02:42:17;11.27;;;3.45;;
32535;SDS011;18974;50.838;4.636;2024-02-15T02:44:42;10.35;;;3.03;;
32535;SDS011;18974;50.838;4.636;2024-02-15T02:47:08;11.82;;;3.53;;
32535;SDS011;18974;50.838;4.636;2024-02-15T02:49:37;12.68;;;3.35;;
32535;SDS011;18974;50.838;4.636;2024-02-15T02:52:03;17.30;;;3.92;;
32535;SDS011;18974;50.838;4.636;2024-02-15T02:54:29;13.73;;;3.95;;
32535;SDS011;18974;50.838;4.636;2024-02-15T02:56:55;13.23;;;3.38;;
32535;SDS011;18974;50.838;4.636;2024-02-15T02:59:21;12.15;;;3.53;;
32535;SDS011;18974;50.838;4.636;2024-02-15T03:01:47;13.38;;;3.47;;
32535;SDS011;18974;50.838;4.636;2024-02-15T03:04:15;13.15;;;3.13;;
32535;SDS011;18974;50.838;4.636;2024-02-15T03:06:42;17.08;;;3.63;;
32535;SDS011;18974;50.838;4.636;2024-02-15T03:09:08;15.05;;;2.80;;
32535;SDS011;18974;50.838;4.636;2024-02-15T03:11:35;10.45;;;3.00;;
32535;SDS011;18974;50.838;4.636;2024-02-15T03:14:01;9.52;;;2.80;;
32535;SDS011;18974;50.838;4.636;2024-02-15T03:16:29;12.05;;;2.78;;
32535;SDS011;18974;50.838;4.636;2024-02-15T03:18:58;9.95;;;2.58;;
32535;SDS011;18974;50.838;4.636;2024-02-15T03:21:27;7.82;;;2.33;;
32535;SDS011;18974;50.838;4.636;2024-02-15T03:23:53;11.73;;;2.60;;
32535;SDS011;18974;50.838;4.636;2024-02-15T03:26:24;8.60;;;2.58;;
32535;SDS011;18974;50.838;4.636;2024-02-15T03:29:01;7.70;;;2.60;;
32535;SDS011;18974;50.838;4.636;2024-02-15T03:31:28;12.45;;;2.58;;
32535;SDS011;18974;50.838;4.636;2024-02-15T03:33:54;10.98;;;2.78;;
32535;SDS011;18974;50.838;4.636;2024-02-15T03:36:20;15.90;;;2.28;;
32535;SDS011;18974;50.838;4.636;2024-02-15T03:38:46;10.13;;;2.58;;
32535;SDS011;18974;50.838;4.636;2024-02-15T03:41:12;9.02;;;2.80;;
32535;SDS011;18974;50.838;4.636;2024-02-15T03:43:38;10.10;;;2.70;;
32535;SDS011;18974;50.838;4.636;2024-02-15T03:46:04;13.05;;;2.95;;
32535;SDS011;18974;50.838;4.636;2024-02-15T03:48:29;8.15;;;2.38;;
32535;SDS011;18974;50.838;4.636;2024-02-15T03:50:57;11.30;;;2.92;;
32535;SDS011;18974;50.838;4.636;2024-02-15T03:53:23;13.18;;;2.78;;
32535;SDS011;18974;50.838;4.636;2024-02-15T03:55:49;8.77;;;2.78;;
32535;SDS011;18974;50.838;4.636;2024-02-15T03:58:18;9.60;;;2.53;;
32535;SDS011;18974;50.838;4.636;2024-02-15T04:00:44;14.88;;;2.65;;
32535;SDS011;18974;50.838;4.636;2024-02-15T04:03:10;11.90;;;2.78;;
32535;SDS011;18974;50.838;4.636;2024-02-15T04:05:36;9.90;;;2.30;;
32535;SDS011;18974;50.838;4.636;2024-02-15T04:08:01;6.22;;;2.15;;
32535;SDS011;18974;50.838;4.636;2024-02-15T04:10:27;11.48;;;2.53;;
32535;SDS011;18974;50.838;4.636;2024-02-15T04:12:53;8.85;;;2.50;;
32535;SDS011;18974;50.838;4.636;2024-02-15T04:15:19;11.85;;;2.63;;
32535;SDS011;18974;50.838;4.636;2024-02-15T04:17:45;10.10;;;2.58;;
32535;SDS011;18974;50.838;4.636;2024-02-15T04:20:11;13.93;;;2.40;;
32535;SDS011;18974;50.838;4.636;2024-02-15T04:22:37;7.95;;;2.67;;
32535;SDS011;18974;50.838;4.636;2024-02-15T04:25:07;8.88;;;2.20;;
32535;SDS011;18974;50.838;4.636;2024-02-15T04:27:41;14.73;;;3.15;;
32535;SDS011;18974;50.838;4.636;2024-02-15T04:30:07;9.90;;;2.42;;
32535;SDS011;18974;50.838;4.636;2024-02-15T04:32:34;8.23;;;2.78;;
32535;SDS011;18974;50.838;4.636;2024-02-15T04:35:01;6.78;;;2.75;;
32535;SDS011;18974;50.838;4.636;2024-02-15T04:37:26;14.07;;;2.88;;
32535;SDS011;18974;50.838;4.636;2024-02-15T04:39:54;14.82;;;3.42;;
32535;SDS011;18974;50.838;4.636;2024-02-15T04:42:21;10.50;;;2.40;;
32535;SDS011;18974;50.838;4.636;2024-02-15T04:44:48;14.23;;;3.05;;
32535;SDS011;18974;50.838;4.636;2024-02-15T04:47:13;12.80;;;2.63;;
32535;SDS011;18974;50.838;4.636;2024-02-15T04:49:39;13.52;;;2.67;;
32535;SDS011;18974;50.838;4.636;2024-02-15T04:52:06;8.80;;;2.47;;
32535;SDS011;18974;50.838;4.636;2024-02-15T04:54:31;13.90;;;2.60;;
32535;SDS011;18974;50.838;4.636;2024-02-15T04:56:57;12.25;;;3.15;;
32535;SDS011;18974;50.838;4.636;2024-02-15T04:59:23;10.10;;;2.33;;
32535;SDS011;18974;50.838;4.636;2024-02-15T05:01:54;11.80;;;2.80;;
32535;SDS011;18974;50.838;4.636;2024-02-15T05:04:21;9.35;;;2.67;;
32535;SDS011;18974;50.838;4.636;2024-02-15T05:06:47;12.73;;;2.85;;
32535;SDS011;18974;50.838;4.636;2024-02-15T05:09:13;8.32;;;2.17;;
32535;SDS011;18974;50.838;4.636;2024-02-15T05:11:39;11.27;;;2.80;;
32535;SDS011;18974;50.838;4.636;2024-02-15T05:14:13;8.18;;;2.05;;
32535;SDS011;18974;50.838;4.636;2024-02-15T05:16:47;12.63;;;2.90;;
32535;SDS011;18974;50.838;4.636;2024-02-15T05:19:14;6.38;;;2.40;;
32535;SDS011;18974;50.838;4.636;2024-02-15T05:21:41;14.05;;;3.00;;
32535;SDS011;18974;50.838;4.636;2024-02-15T05:24:09;10.05;;;2.85;;
32535;SDS011;18974;50.838;4.636;2024-02-15T05:26:36;9.43;;;2.50;;
32535;SDS011;18974;50.838;4.636;2024-02-15T05:29:02;11.93;;;2.58;;
32535;SDS011;18974;50.838;4.636;2024-02-15T05:31:29;13.65;;;2.97;;
32535;SDS011;18974;50.838;4.636;2024-02-15T05:33:55;6.55;;;2.40;;
32535;SDS011;18974;50.838;4.636;2024-02-15T05:36:21;10.52;;;3.13;;
32535;SDS011;18974;50.838;4.636;2024-02-15T05:38:52;12.23;;;3.15;;
32535;SDS011;18974;50.838;4.636;2024-02-15T05:41:19;16.75;;;3.03;;
32535;SDS011;18974;50.838;4.636;2024-02-15T05:43:45;11.98;;;3.20;;
32535;SDS011;18974;50.838;4.636;2024-02-15T05:46:13;13.45;;;2.70;;
32535;SDS011;18974;50.838;4.636;2024-02-15T05:48:39;13.05;;;3.10;;
32535;SDS011;18974;50.838;4.636;2024-02-15T05:51:06;10.38;;;3.72;;
32535;SDS011;18974;50.838;4.636;2024-02-15T05:53:33;11.00;;;3.92;;
32535;SDS011;18974;50.838;4.636;2024-02-15T05:56:01;13.98;;;3.83;;
32535;SDS011;18974;50.838;4.636;2024-02-15T05:58:29;11.13;;;4.28;;
32535;SDS011;18974;50.838;4.636;2024-02-15T06:00:55;15.30;;;4.82;;
32535;SDS011;18974;50.838;4.636;2024-02-15T06:03:26;15.80;;;5.03;;
32535;SDS011;18974;50.838;4.636;2024-02-15T06:05:57;20.48;;;5.88;;
32535;SDS011;18974;50.838;4.636;2024-02-15T06:08:26;15.18;;;4.68;;
32535;SDS011;18974;50.838;4.636;2024-02-15T06:10:55;14.70;;;5.15;;
32535;SDS011;18974;50.838;4.636;2024-02-15T06:13:21;11.23;;;4.75;;
32535;SDS011;18974;50.838;4.636;2024-02-15T06:15:48;11.88;;;4.88;;
32535;SDS011;18974;50.838;4.636;2024-02-15T06:18:21;16.30;;;5.13;;
32535;SDS011;18974;50.838;4.636;2024-02-15T06:20:49;14.05;;;4.30;;
32535;SDS011;18974;50.838;4.636;2024-02-15T06:23:18;14.15;;;4.45;;
32535;SDS011;18974;50.838;4.636;2024-02-15T06:25:46;17.10;;;4.40;;
32535;SDS011;18974;50.838;4.636;2024-02-15T06:28:14;14.05;;;3.95;;
32535;SDS011;18974;50.838;4.636;2024-02-15T06:30:58;11.73;;;3.67;;
32535;SDS011;18974;50.838;4.636;2024-02-15T06:33:42;12.57;;;3.70;;
32535;SDS011;18974;50.838;4.636;2024-02-15T06:36:26;7.95;;;3.22;;
32535;SDS011;18974;50.838;4.636;2024-02-15T06:39:10;16.98;;;4.45;;
32535;SDS011;18974;50.838;4.636;2024-02-15T06:41:54;11.10;;;3.63;;
32535;SDS011;18974;50.838;4.636;2024-02-15T06:44:21;14.93;;;3.15;;
32535;SDS011;18974;50.838;4.636;2024-02-15T06:46:49;10.98;;;3.65;;
32535;SDS011;18974;50.838;4.636;2024-02-15T06:49:15;7.15;;;2.50;;
32535;SDS011;18974;50.838;4.636;2024-02-15T06:51:41;10.05;;;2.83;;
32535;SDS011;18974;50.838;4.636;2024-02-15T06:54:07;11.43;;;2.53;;
32535;SDS011;18974;50.838;4.636;2024-02-15T06:56:36;9.68;;;3.13;;
32535;SDS011;18974;50.838;4.636;2024-02-15T06:59:02;8.80;;;2.60;;
32535;SDS011;18974;50.838;4.636;2024-02-15T07:01:28;8.68;;;2.80;;
32535;SDS011;18974;50.838;4.636;2024-02-15T07:03:54;9.60;;;2.67;;
32535;SDS011;18974;50.838;4.636;2024-02-15T07:06:21;9.93;;;2.70;;
32535;SDS011;18974;50.838;4.636;2024-02-15T07:08:47;6.75;;;2.08;;
32535;SDS011;18974;50.838;4.636;2024-02-15T07:11:15;9.88;;;2.40;;
32535;SDS011;18974;50.838;4.636;2024-02-15T07:13:41;7.07;;;2.53;;
32535;SDS011;18974;50.838;4.636;2024-02-15T07:16:10;9.70;;;2.25;;
32535;SDS011;18974;50.838;4.636;2024-02-15T07:18:36;10.90;;;2.65;;
32535;SDS011;18974;50.838;4.636;2024-02-15T07:21:02;10.88;;;2.35;;
32535;SDS011;18974;50.838;4.636;2024-02-15T07:23:33;4.72;;;1.90;;
32535;SDS011;18974;50.838;4.636;2024-02-15T07:25:59;6.50;;;2.13;;
32535;SDS011;18974;50.838;4.636;2024-02-15T07:28:25;9.13;;;2.45;;
32535;SDS011;18974;50.838;4.636;2024-02-15T07:30:54;10.68;;;2.58;;
32535;SDS011;18974;50.838;4.636;2024-02-15T07:33:20;5.88;;;1.98;;
32535;SDS011;18974;50.838;4.636;2024-02-15T07:35:47;8.38;;;2.15;;
32535;SDS011;18974;50.838;4.636;2024-02-15T07:38:16;7.40;;;2.10;;
32535;SDS011;18974;50.838;4.636;2024-02-15T07:40:42;4.65;;;1.70;;
32535;SDS011;18974;50.838;4.636;2024-02-15T07:43:08;8.73;;;2.50;;
32535;SDS011;18974;50.838;4.636;2024-02-15T07:45:34;7.90;;;1.95;;
32535;SDS011;18974;50.838;4.636;2024-02-15T07:48:02;6.85;;;2.05;;
32535;SDS011;18974;50.838;4.636;2024-02-15T07:50:31;6.10;;;2.10;;
32535;SDS011;18974;50.838;4.636;2024-02-15T07:52:57;9.63;;;2.38;;
32535;SDS011;18974;50.838;4.636;2024-02-15T07:55:23;7.13;;;2.20;;
32535;SDS011;18974;50.838;4.636;2024-02-15T07:57:49;8.73;;;2.00;;
32535;SDS011;18974;50.838;4.636;2024-02-15T08:00:16;8.57;;;2.10;;
32535;SDS011;18974;50.838;4.636;2024-02-15T08:02:42;8.80;;;1.95;;
32535;SDS011;18974;50.838;4.636;2024-02-15T08:05:11;16.02;;;2.22;;
32535;SDS011;18974;50.838;4.636;2024-02-15T08:07:43;5.78;;;1.95;;
32535;SDS011;18974;50.838;4.636;2024-02-15T08:10:10;5.25;;;2.08;;
32535;SDS011;18974;50.838;4.636;2024-02-15T08:12:40;9.10;;;1.90;;
32535;SDS011;18974;50.838;4.636;2024-02-15T08:15:10;9.45;;;2.53;;
32535;SDS011;18974;50.838;4.636;2024-02-15T08:17:39;8.48;;;2.25;;
32535;SDS011;18974;50.838;4.636;2024-02-15T08:20:11;5.85;;;2.00;;
32535;SDS011;18974;50.838;4.636;2024-02-15T08:22:37;10.13;;;2.08;;
32535;SDS011;18974;50.838;4.636;2024-02-15T08:25:08;8.65;;;2.38;;
32535;SDS011;18974;50.838;4.636;2024-02-15T08:27:38;14.00;;;2.67;;
32535;SDS011;18974;50.838;4.636;2024-02-15T08:30:11;7.85;;;2.08;;
32535;SDS011;18974;50.838;4.636;2024-02-15T08:32:38;6.00;;;1.83;;
32535;SDS011;18974;50.838;4.636;2024-02-15T08:35:10;9.77;;;2.15;;
32535;SDS011;18974;50.838;4.636;2024-02-15T08:37:37;11.35;;;2.13;;
32535;SDS011;18974;50.838;4.636;2024-02-15T08:40:04;10.65;;;2.17;;
32535;SDS011;18974;50.838;4.636;2024-02-15T08:42:43;10.50;;;2.58;;
32535;SDS011;18974;50.838;4.636;2024-02-15T08:45:09;8.07;;;2.30;;
32535;SDS011;18974;50.838;4.636;2024-02-15T08:47:39;11.10;;;2.40;;
32535;SDS011;18974;50.838;4.636;2024-02-15T08:50:06;7.90;;;2.47;;
32535;SDS011;18974;50.838;4.636;2024-02-15T08:52:34;7.15;;;2.50;;
32535;SDS011;18974;50.838;4.636;2024-02-15T08:55:03;10.68;;;2.65;;
32535;SDS011;18974;50.838;4.636;2024-02-15T08:57:35;7.45;;;2.75;;
32535;SDS011;18974;50.838;4.636;2024-02-15T09:00:03;8.32;;;2.53;;
32535;SDS011;18974;50.838;4.636;2024-02-15T09:02:34;8.85;;;2.88;;
32535;SDS011;18974;50.838;4.636;2024-02-15T09:05:00;9.88;;;2.97;;
32535;SDS011;18974;50.838;4.636;2024-02-15T09:07:26;8.10;;;2.67;;
32535;SDS011;18974;50.838;4.636;2024-02-15T09:09:51;12.02;;;3.53;;
32535;SDS011;18974;50.838;4.636;2024-02-15T09:12:17;11.00;;;2.83;;
32535;SDS011;18974;50.838;4.636;2024-02-15T09:14:42;16.38;;;2.83;;
32535;SDS011;18974;50.838;4.636;2024-02-15T09:17:08;5.95;;;2.35;;
32535;SDS011;18974;50.838;4.636;2024-02-15T09:19:34;8.80;;;2.80;;
32535;SDS011;18974;50.838;4.636;2024-02-15T09:22:01;9.20;;;2.75;;
32535;SDS011;18974;50.838;4.636;2024-02-15T09:24:29;10.52;;;2.58;;
32535;SDS011;18974;50.838;4.636;2024-02-15T09:26:59;13.65;;;2.78;;
32535;SDS011;18974;50.838;4.636;2024-02-15T09:29:27;6.85;;;2.35;;
32535;SDS011;18974;50.838;4.636;2024-02-15T09:31:55;6.28;;;2.83;;
32535;SDS011;18974;50.838;4.636;2024-02-15T09:34:22;7.63;;;3.08;;
32535;SDS011;18974;50.838;4.636;2024-02-15T09:36:48;7.63;;;2.33;;
32535;SDS011;18974;50.838;4.636;2024-02-15T09:39:14;7.90;;;2.50;;
32535;SDS011;18974;50.838;4.636;2024-02-15T09:41:39;5.18;;;2.22;;
32535;SDS011;18974;50.838;4.636;2024-02-15T09:44:08;7.13;;;2.30;;
32535;SDS011;18974;50.838;4.636;2024-02-15T09:46:35;5.40;;;1.80;;
32535;SDS011;18974;50.838;4.636;2024-02-15T09:49:06;5.57;;;1.70;;
32535;SDS011;18974;50.838;4.636;2024-02-15T09:51:32;8.13;;;2.13;;
32535;SDS011;18974;50.838;4.636;2024-02-15T09:53:58;7.43;;;2.00;;
32535;SDS011;18974;50.838;4.636;2024-02-15T09:56:26;8.30;;;1.88;;
32535;SDS011;18974;50.838;4.636;2024-02-15T09:58:54;3.80;;;1.77;;
32535;SDS011;18974;50.838;4.636;2024-02-15T10:01:20;5.10;;;1.83;;
32535;SDS011;18974;50.838;4.636;2024-02-15T10:03:51;5.00;;;1.70;;
32535;SDS011;18974;50.838;4.636;2024-02-15T10:06:17;5.80;;;1.55;;
32535;SDS011;18974;50.838;4.636;2024-02-15T10:08:44;8.15;;;1.50;;
32535;SDS011;18974;50.838;4.636;2024-02-15T10:11:12;4.35;;;1.65;;
32535;SDS011;18974;50.838;4.636;2024-02-15T10:13:38;5.95;;;1.48;;
32535;SDS011;18974;50.838;4.636;2024-02-15T10:16:17;5.63;;;1.70;;
32535;SDS011;18974;50.838;4.636;2024-02-15T10:18:44;6.57;;;2.35;;
32535;SDS011;18974;50.838;4.636;2024-02-15T10:21:23;7.13;;;2.08;;
32535;SDS011;18974;50.838;4.636;2024-02-15T10:24:01;4.68;;;1.77;;
32535;SDS011;18974;50.838;4.636;2024-02-15T10:26:31;4.13;;;1.80;;
32535;SDS011;18974;50.838;4.636;2024-02-15T10:29:07;8.75;;;2.30;;
32535;SDS011;18974;50.838;4.636;2024-02-15T10:31:35;6.72;;;2.03;;
32535;SDS011;18974;50.838;4.636;2024-02-15T10:34:05;7.88;;;2.00;;
32535;SDS011;18974;50.838;4.636;2024-02-15T10:36:32;4.68;;;1.77;;
32535;SDS011;18974;50.838;4.636;2024-02-15T10:39:20;5.72;;;1.77;;
32535;SDS011;18974;50.838;4.636;2024-02-15T10:44:18;3.53;;;1.60;;
32535;SDS011;18974;50.838;4.636;2024-02-15T10:46:46;5.47;;;1.65;;
32535;SDS011;18974;50.838;4.636;2024-02-15T10:49:16;6.53;;;1.65;;
32535;SDS011;18974;50.838;4.636;2024-02-15T10:51:43;5.55;;;1.40;;
32535;SDS011;18974;50.838;4.636;2024-02-15T10:54:11;5.53;;;1.80;;
32535;SDS011;18974;50.838;4.636;2024-02-15T10:56:43;7.57;;;1.60;;
32535;SDS011;18974;50.838;4.636;2024-02-15T10:59:17;5.15;;;1.33;;
32535;SDS011;18974;50.838;4.636;2024-02-15T11:01:49;8.27;;;1.88;;
32535;SDS011;18974;50.838;4.636;2024-02-15T11:04:20;18.70;;;2.22;;
32535;SDS011;18974;50.838;4.636;2024-02-15T11:06:47;8.23;;;2.00;;
32535;SDS011;18974;50.838;4.636;2024-02-15T11:09:15;6.22;;;2.10;;
32535;SDS011;18974;50.838;4.636;2024-02-15T11:11:42;4.72;;;2.25;;
32535;SDS011;18974;50.838;4.636;2024-02-15T11:16:57;6.35;;;1.60;;
32535;SDS011;18974;50.838;4.636;2024-02-15T11:22:00;4.38;;;1.88;;
32535;SDS011;18974;50.838;4.636;2024-02-15T11:24:29;6.95;;;1.95;;
32535;SDS011;18974;50.838;4.636;2024-02-15T11:27:02;4.57;;;1.83;;
32535;SDS011;18974;50.838;4.636;2024-02-15T11:32:46;6.07;;;1.50;;
32535;SDS011;18974;50.838;4.636;2024-02-15T11:35:18;2.85;;;1.40;;
32535;SDS011;18974;50.838;4.636;2024-02-15T11:40:22;4.07;;;1.35;;
32535;SDS011;18974;50.838;4.636;2024-02-15T11:42:50;7.72;;;2.38;;
32535;SDS011;18974;50.838;4.636;2024-02-15T11:45:19;6.38;;;1.75;;
32535;SDS011;18974;50.838;4.636;2024-02-15T11:47:50;9.00;;;1.40;;
32535;SDS011;18974;50.838;4.636;2024-02-15T11:50:19;8.50;;;1.90;;
32535;SDS011;18974;50.838;4.636;2024-02-15T11:52:46;7.50;;;1.40;;
32535;SDS011;18974;50.838;4.636;2024-02-15T11:55:14;7.70;;;1.70;;
32535;SDS011;18974;50.838;4.636;2024-02-15T11:57:53;4.95;;;1.27;;
32535;SDS011;18974;50.838;4.636;2024-02-15T12:00:29;5.00;;;1.20;;
32535;SDS011;18974;50.838;4.636;2024-02-15T12:03:15;5.93;;;1.60;;
32535;SDS011;18974;50.838;4.636;2024-02-15T12:06:00;7.03;;;1.47;;
32535;SDS011;18974;50.838;4.636;2024-02-15T12:08:48;5.78;;;1.40;;
32535;SDS011;18974;50.838;4.636;2024-02-15T12:11:33;5.35;;;1.50;;
32535;SDS011;18974;50.838;4.636;2024-02-15T12:14:18;5.97;;;1.50;;
32535;SDS011;18974;50.838;4.636;2024-02-15T12:17:03;5.00;;;1.33;;
32535;SDS011;18974;50.838;4.636;2024-02-15T12:19:49;5.55;;;1.65;;
32535;SDS011;18974;50.838;4.636;2024-02-15T12:22:17;3.38;;;1.15;;
32535;SDS011;18974;50.838;4.636;2024-02-15T12:24:52;6.18;;;1.42;;
32535;SDS011;18974;50.838;4.636;2024-02-15T12:27:21;3.72;;;1.40;;
32535;SDS011;18974;50.838;4.636;2024-02-15T12:29:55;9.18;;;1.45;;
32535;SDS011;18974;50.838;4.636;2024-02-15T12:32:23;4.20;;;1.10;;
32535;SDS011;18974;50.838;4.636;2024-02-15T12:34:52;2.67;;;1.25;;
32535;SDS011;18974;50.838;4.636;2024-02-15T12:37:34;6.10;;;1.20;;
32535;SDS011;18974;50.838;4.636;2024-02-15T12:40:09;3.55;;;1.15;;
32535;SDS011;18974;50.838;4.636;2024-02-15T12:42:40;5.07;;;1.05;;
32535;SDS011;18974;50.838;4.636;2024-02-15T12:45:08;5.72;;;1.30;;
32535;SDS011;18974;50.838;4.636;2024-02-15T12:47:45;2.83;;;1.20;;
32535;SDS011;18974;50.838;4.636;2024-02-15T12:50:13;2.63;;;1.33;;
32535;SDS011;18974;50.838;4.636;2024-02-15T12:52:39;6.45;;;1.20;;
32535;SDS011;18974;50.838;4.636;2024-02-15T12:57:46;3.80;;;1.25;;
32535;SDS011;18974;50.838;4.636;2024-02-15T13:00:15;3.05;;;0.90;;
32535;SDS011;18974;50.838;4.636;2024-02-15T13:02:47;3.13;;;1.13;;
32535;SDS011;18974;50.838;4.636;2024-02-15T13:05:14;5.22;;;1.35;;
32535;SDS011;18974;50.838;4.636;2024-02-15T13:07:40;5.55;;;1.00;;
32535;SDS011;18974;50.838;4.636;2024-02-15T13:10:06;4.13;;;1.13;;
32535;SDS011;18974;50.838;4.636;2024-02-15T13:12:34;3.50;;;1.00;;
32535;SDS011;18974;50.838;4.636;2024-02-15T13:15:01;4.53;;;1.33;;
32535;SDS011;18974;50.838;4.636;2024-02-15T13:17:32;4.38;;;1.27;;
32535;SDS011;18974;50.838;4.636;2024-02-15T13:20:01;3.95;;;1.13;;
32535;SDS011;18974;50.838;4.636;2024-02-15T13:22:30;3.47;;;1.00;;
32535;SDS011;18974;50.838;4.636;2024-02-15T13:24:57;6.28;;;1.40;;
32535;SDS011;18974;50.838;4.636;2024-02-15T13:27:23;3.53;;;0.95;;
32535;SDS011;18974;50.838;4.636;2024-02-15T13:29:50;2.78;;;1.17;;
32535;SDS011;18974;50.838;4.636;2024-02-15T13:32:15;8.60;;;1.27;;
32535;SDS011;18974;50.838;4.636;2024-02-15T13:34:45;2.90;;;0.93;;
32535;SDS011;18974;50.838;4.636;2024-02-15T13:37:21;4.00;;;1.17;;
32535;SDS011;18974;50.838;4.636;2024-02-15T13:39:48;5.85;;;1.38;;
32535;SDS011;18974;50.838;4.636;2024-02-15T13:42:15;3.72;;;0.98;;
32535;SDS011;18974;50.838;4.636;2024-02-15T13:44:44;2.78;;;1.40;;
32535;SDS011;18974;50.838;4.636;2024-02-15T13:47:13;2.58;;;0.93;;
32535;SDS011;18974;50.838;4.636;2024-02-15T13:49:41;3.65;;;1.20;;
32535;SDS011;18974;50.838;4.636;2024-02-15T13:52:07;2.58;;;1.00;;
32535;SDS011;18974;50.838;4.636;2024-02-15T13:54:32;3.40;;;1.00;;
32535;SDS011;18974;50.838;4.636;2024-02-15T13:56:59;2.65;;;1.20;;
32535;SDS011;18974;50.838;4.636;2024-02-15T13:59:26;5.75;;;1.25;;
32535;SDS011;18974;50.838;4.636;2024-02-15T14:01:53;3.17;;;1.25;;
32535;SDS011;18974;50.838;4.636;2024-02-15T14:04:19;3.88;;;1.02;;
32535;SDS011;18974;50.838;4.636;2024-02-15T14:06:45;2.72;;;1.10;;
32535;SDS011;18974;50.838;4.636;2024-02-15T14:09:12;9.30;;;0.98;;
32535;SDS011;18974;50.838;4.636;2024-02-15T14:11:38;4.35;;;1.08;;
32535;SDS011;18974;50.838;4.636;2024-02-15T14:14:05;3.30;;;1.15;;
32535;SDS011;18974;50.838;4.636;2024-02-15T14:16:31;3.65;;;1.30;;
32535;SDS011;18974;50.838;4.636;2024-02-15T14:18:58;2.78;;;1.13;;
32535;SDS011;18974;50.838;4.636;2024-02-15T14:21:24;2.90;;;1.02;;
32535;SDS011;18974;50.838;4.636;2024-02-15T14:23:50;3.55;;;1.30;;
32535;SDS011;18974;50.838;4.636;2024-02-15T14:26:16;2.90;;;0.80;;
32535;SDS011;18974;50.838;4.636;2024-02-15T14:28:42;1.92;;;1.00;;
32535;SDS011;18974;50.838;4.636;2024-02-15T14:31:10;2.58;;;0.80;;
32535;SDS011;18974;50.838;4.636;2024-02-15T14:33:55;2.45;;;0.60;;
32535;SDS011;18974;50.838;4.636;2024-02-15T14:36:21;4.72;;;0.95;;
32535;SDS011;18974;50.838;4.636;2024-02-15T14:38:46;5.28;;;1.10;;
32535;SDS011;18974;50.838;4.636;2024-02-15T14:41:12;2.75;;;1.02;;
32535;SDS011;18974;50.838;4.636;2024-02-15T14:43:38;5.38;;;0.95;;
32535;SDS011;18974;50.838;4.636;2024-02-15T14:46:04;3.28;;;1.33;;
32535;SDS011;18974;50.838;4.636;2024-02-15T14:48:35;4.47;;;1.13;;
32535;SDS011;18974;50.838;4.636;2024-02-15T14:51:01;3.78;;;0.93;;
32535;SDS011;18974;50.838;4.636;2024-02-15T14:53:27;1.55;;;0.80;;
32535;SDS011;18974;50.838;4.636;2024-02-15T14:55:53;4.43;;;1.10;;
32535;SDS011;18974;50.838;4.636;2024-02-15T14:58:19;3.10;;;1.15;;
32535;SDS011;18974;50.838;4.636;2024-02-15T15:00:47;3.90;;;1.25;;
32535;SDS011;18974;50.838;4.636;2024-02-15T15:03:14;5.57;;;1.35;;